createdAt,value
2018-08-28T00:01:04.535Z,8.83
2018-08-28T00:03:32.843Z,8.33
2018-08-28T00:06:00.943Z,7.67
2018-08-28T00:08:29.035Z,7.73
2018-08-28T00:10:57.127Z,7.80
2018-08-28T00:13:25.215Z,7.57
2018-08-28T00:15:53.303Z,8.53
2018-08-28T00:18:21.399Z,7.37
2018-08-28T00:20:49.503Z,8.23
2018-08-28T00:23:17.696Z,7.20
2018-08-28T00:25:45.788Z,8.13
2018-08-28T00:28:13.877Z,7.63
2018-08-28T00:30:41.981Z,8.03
2018-08-28T00:33:10.638Z,7.63
2018-08-28T00:35:38.919Z,8.00
2018-08-28T00:38:15.916Z,9.40
2018-08-28T00:40:44.035Z,9.73
2018-08-28T00:43:12.148Z,9.80
2018-08-28T00:45:40.256Z,8.30
2018-08-28T00:48:08.414Z,8.67
2018-08-28T00:50:36.527Z,7.30
2018-08-28T00:53:04.647Z,7.97
2018-08-28T00:55:32.764Z,8.37
2018-08-28T00:58:00.869Z,8.33
2018-08-28T01:00:28.976Z,8.53
2018-08-28T01:02:57.095Z,8.70
2018-08-28T01:05:25.215Z,8.03
2018-08-28T01:07:53.812Z,7.67
2018-08-28T01:10:21.964Z,7.60
2018-08-28T01:12:50.157Z,7.00
2018-08-28T01:15:18.271Z,7.90
2018-08-28T01:17:46.400Z,6.93
2018-08-28T01:20:14.524Z,6.77
2018-08-28T01:22:42.623Z,7.83
2018-08-28T01:25:10.747Z,8.40
2018-08-28T01:27:38.973Z,7.80
2018-08-28T01:30:07.221Z,6.83
2018-08-28T01:32:35.359Z,7.80
2018-08-28T01:35:03.487Z,7.53
2018-08-28T01:37:31.613Z,6.33
2018-08-28T01:39:59.740Z,8.70
2018-08-28T01:42:27.852Z,7.50
2018-08-28T01:44:55.966Z,7.60
2018-08-28T01:47:24.072Z,8.53
2018-08-28T01:49:52.235Z,7.10
2018-08-28T01:52:20.870Z,7.70
2018-08-28T01:54:48.988Z,7.40
2018-08-28T01:57:17.101Z,6.90
2018-08-28T01:59:45.216Z,8.30
2018-08-28T02:02:13.336Z,8.50
2018-08-28T02:04:41.454Z,6.50
2018-08-28T02:07:09.572Z,7.83
2018-08-28T02:09:37.686Z,8.03
2018-08-28T02:12:05.792Z,7.13
2018-08-28T02:14:33.889Z,7.67
2018-08-28T02:17:02.021Z,7.67
2018-08-28T02:19:30.109Z,7.17
2018-08-28T02:21:58.221Z,8.13
2018-08-28T02:24:26.329Z,8.40
2018-08-28T02:26:54.433Z,7.67
2018-08-28T02:29:22.547Z,8.57
2018-08-28T02:31:50.656Z,7.70
2018-08-28T02:34:18.764Z,6.90
2018-08-28T02:36:46.872Z,6.63
2018-08-28T02:39:14.972Z,8.27
2018-08-28T02:41:43.095Z,9.53
2018-08-28T02:44:11.205Z,7.50
2018-08-28T02:46:39.329Z,9.73
2018-08-28T02:49:07.424Z,7.67
2018-08-28T02:51:36.250Z,8.40
2018-08-28T02:54:04.385Z,7.63
2018-08-28T02:56:32.506Z,7.47
2018-08-28T02:59:00.631Z,6.83
2018-08-28T03:01:28.768Z,7.00
2018-08-28T03:03:56.880Z,7.97
2018-08-28T03:06:25.040Z,7.80
2018-08-28T03:08:53.148Z,7.80
2018-08-28T03:11:21.345Z,8.00
2018-08-28T03:13:49.426Z,7.10
2018-08-28T03:16:17.543Z,8.23
2018-08-28T03:18:45.672Z,7.63
2018-08-28T03:21:13.780Z,6.87
2018-08-28T03:23:41.921Z,8.20
2018-08-28T03:26:10.379Z,8.13
2018-08-28T03:28:38.776Z,6.80
2018-08-28T03:31:06.884Z,8.00
2018-08-28T03:33:35.030Z,7.13
2018-08-28T03:36:03.144Z,7.20
2018-08-28T03:38:31.249Z,6.47
2018-08-28T03:40:59.355Z,7.47
2018-08-28T03:43:27.491Z,6.77
2018-08-28T03:45:55.602Z,6.27
2018-08-28T03:48:23.793Z,9.03
2018-08-28T03:50:51.908Z,7.20
2018-08-28T03:53:20.417Z,7.90
2018-08-28T03:55:48.530Z,7.17
2018-08-28T03:58:16.644Z,7.63
2018-08-28T04:00:44.753Z,7.90
2018-08-28T04:03:12.915Z,6.67
2018-08-28T04:05:41.239Z,7.83
2018-08-28T04:08:09.358Z,8.37
2018-08-28T04:10:37.461Z,6.27
2018-08-28T04:13:06.375Z,6.50
2018-08-28T04:15:34.485Z,8.33
2018-08-28T04:18:02.607Z,6.80
2018-08-28T04:20:30.716Z,5.93
2018-08-28T04:22:58.965Z,5.70
2018-08-28T04:25:27.146Z,6.20
2018-08-28T04:27:55.255Z,6.37
2018-08-28T04:30:23.405Z,5.83
2018-08-28T04:32:51.488Z,5.60
2018-08-28T04:35:19.567Z,4.73
2018-08-28T04:37:47.692Z,4.97
2018-08-28T04:40:15.803Z,5.93
2018-08-28T04:42:43.914Z,4.97
2018-08-28T04:45:11.997Z,5.47
2018-08-28T04:47:40.109Z,4.67
2018-08-28T04:50:08.214Z,5.10
2018-08-28T04:52:36.333Z,4.10
2018-08-28T04:55:04.480Z,4.60
2018-08-28T04:57:32.568Z,4.93
2018-08-28T05:00:00.655Z,4.40
2018-08-28T05:02:33.024Z,4.67
2018-08-28T05:05:01.431Z,3.80
2018-08-28T05:07:29.657Z,3.90
2018-08-28T05:09:57.788Z,4.43
2018-08-28T05:12:25.925Z,3.70
2018-08-28T05:14:54.069Z,4.50
2018-08-28T05:17:22.223Z,4.30
2018-08-28T05:19:50.340Z,4.50
2018-08-28T05:22:18.448Z,4.50
2018-08-28T05:24:46.570Z,4.53
2018-08-28T05:27:14.682Z,4.43
2018-08-28T05:29:42.803Z,3.90
2018-08-28T05:32:10.892Z,3.87
2018-08-28T05:34:39.003Z,4.80
2018-08-28T05:37:07.101Z,5.00
2018-08-28T05:39:35.227Z,4.83
2018-08-28T05:42:03.345Z,4.33
2018-08-28T05:44:31.460Z,5.33
2018-08-28T05:46:59.573Z,6.00
2018-08-28T05:49:27.728Z,5.30
2018-08-28T05:51:55.822Z,5.70
2018-08-28T05:54:23.927Z,5.00
2018-08-28T05:56:52.042Z,5.53
2018-08-28T05:59:20.170Z,5.00
2018-08-28T06:01:48.284Z,5.93
2018-08-28T06:04:16.402Z,6.27
2018-08-28T06:06:44.526Z,7.47
2018-08-28T06:09:12.640Z,5.00
2018-08-28T06:11:40.750Z,5.67
2018-08-28T06:14:09.267Z,5.00
2018-08-28T06:16:37.380Z,5.40
2018-08-28T06:19:05.637Z,3.77
2018-08-28T06:21:33.747Z,3.37
2018-08-28T06:24:01.879Z,4.20
2018-08-28T06:26:30.045Z,4.47
2018-08-28T06:28:58.106Z,4.00
2018-08-28T06:31:26.200Z,3.50
2018-08-28T06:33:54.438Z,4.40
2018-08-28T06:36:22.548Z,3.73
2018-08-28T06:38:50.681Z,4.13
2018-08-28T06:41:18.765Z,4.93
2018-08-28T06:43:46.928Z,4.20
2018-08-28T06:46:14.988Z,4.70
2018-08-28T06:48:43.111Z,4.03
2018-08-28T06:51:11.228Z,3.87
2018-08-28T06:53:39.424Z,4.00
2018-08-28T06:56:07.535Z,4.37
2018-08-28T06:58:35.673Z,4.10
2018-08-28T07:01:03.805Z,4.43
2018-08-28T07:03:31.916Z,4.13
2018-08-28T07:06:00.032Z,4.23
2018-08-28T07:08:28.136Z,4.30
2018-08-28T07:10:56.258Z,4.37
2018-08-28T07:13:24.357Z,4.73
2018-08-28T07:15:52.489Z,3.60
2018-08-28T07:18:20.602Z,3.27
2018-08-28T07:20:48.708Z,3.80
2018-08-28T07:23:16.848Z,5.10
2018-08-28T07:25:45.048Z,3.50
2018-08-28T07:28:13.099Z,4.10
2018-08-28T07:30:41.224Z,3.87
2018-08-28T07:33:09.377Z,3.13
2018-08-28T07:35:37.485Z,3.60
2018-08-28T07:38:05.650Z,4.30
2018-08-28T07:40:33.774Z,3.43
2018-08-28T07:43:01.888Z,3.77
2018-08-28T07:45:29.999Z,3.50
2018-08-28T07:47:58.130Z,3.80
2018-08-28T07:50:26.248Z,4.23
2018-08-28T07:52:54.349Z,3.87
2018-08-28T07:55:22.477Z,4.27
2018-08-28T07:57:50.609Z,3.83
2018-08-28T08:00:18.725Z,3.23
2018-08-28T08:02:46.856Z,3.40
2018-08-28T08:05:14.976Z,3.70
2018-08-28T08:07:43.081Z,3.23
2018-08-28T08:10:11.208Z,3.23
2018-08-28T08:12:39.303Z,4.43
2018-08-28T08:15:07.420Z,4.10
2018-08-28T08:17:35.529Z,3.30
2018-08-28T08:20:03.651Z,3.23
2018-08-28T08:22:31.781Z,2.90
2018-08-28T08:24:59.901Z,3.20
2018-08-28T08:27:28.008Z,3.73
2018-08-28T08:29:56.116Z,2.90
2018-08-28T08:32:24.215Z,2.83
2018-08-28T08:34:52.333Z,3.57
2018-08-28T08:37:20.440Z,2.57
2018-08-28T08:39:48.605Z,3.37
2018-08-28T08:42:16.715Z,3.70
2018-08-28T08:44:44.881Z,2.93
2018-08-28T08:47:13.025Z,4.83
2018-08-28T08:49:41.149Z,3.30
2018-08-28T08:52:09.266Z,3.03
2018-08-28T08:54:37.373Z,2.77
2018-08-28T08:57:05.496Z,3.50
2018-08-28T08:59:33.622Z,2.63
2018-08-28T09:02:01.782Z,2.93
2018-08-28T09:04:29.914Z,3.10
2018-08-28T09:06:58.029Z,2.60
2018-08-28T09:09:26.156Z,2.90
2018-08-28T09:11:54.279Z,4.13
2018-08-28T09:14:22.386Z,3.00
2018-08-28T09:16:50.492Z,2.90
2018-08-28T09:19:18.661Z,2.93
2018-08-28T09:21:46.754Z,2.90
2018-08-28T09:24:14.854Z,2.90
2018-08-28T09:26:42.968Z,2.70
2018-08-28T09:29:11.077Z,3.37
2018-08-28T09:31:39.340Z,2.83
2018-08-28T09:34:07.397Z,3.20
2018-08-28T09:36:35.521Z,3.40
2018-08-28T09:39:04.475Z,3.37
2018-08-28T09:41:32.606Z,3.10
2018-08-28T09:44:00.732Z,3.03
2018-08-28T09:46:28.884Z,3.07
2018-08-28T09:48:57.000Z,2.70
2018-08-28T09:51:25.123Z,2.63
2018-08-28T09:53:53.240Z,2.90
2018-08-28T09:56:21.381Z,3.40
2018-08-28T09:58:49.500Z,2.60
2018-08-28T10:01:22.961Z,3.10
2018-08-28T10:03:51.202Z,3.03
2018-08-28T10:06:19.333Z,3.03
2018-08-28T10:08:47.452Z,3.10
2018-08-28T10:11:15.629Z,2.20
2018-08-28T10:13:43.769Z,3.00
2018-08-28T10:16:11.953Z,2.40
2018-08-28T10:18:40.071Z,2.27
2018-08-28T10:21:08.240Z,3.40
2018-08-28T10:23:36.358Z,3.00
2018-08-28T10:26:04.550Z,2.50
2018-08-28T10:28:32.683Z,3.50
2018-08-28T10:31:00.853Z,3.17
2018-08-28T10:33:28.980Z,2.57
2018-08-28T10:35:57.140Z,3.43
2018-08-28T10:38:25.242Z,5.40
2018-08-28T10:40:53.370Z,3.90
2018-08-28T10:43:21.492Z,2.73
2018-08-28T10:45:50.204Z,3.70
2018-08-28T10:48:18.352Z,3.77
2018-08-28T10:50:46.488Z,2.73
2018-08-28T10:53:14.617Z,3.03
2018-08-28T10:55:42.732Z,3.63
2018-08-28T10:58:10.865Z,3.63
2018-08-28T11:00:39.029Z,3.20
2018-08-28T11:03:07.150Z,3.83
2018-08-28T11:05:35.265Z,2.83
2018-08-28T11:08:03.416Z,4.17
2018-08-28T11:10:31.549Z,2.97
2018-08-28T11:12:59.677Z,4.10
2018-08-28T11:15:27.855Z,3.70
2018-08-28T11:17:55.987Z,4.13
2018-08-28T11:20:24.084Z,3.13
2018-08-28T11:22:52.254Z,4.10
2018-08-28T11:25:20.413Z,4.17
2018-08-28T11:27:48.532Z,3.87
2018-08-28T11:30:16.644Z,4.27
2018-08-28T11:32:44.861Z,3.50
2018-08-28T11:35:12.979Z,4.07
2018-08-28T11:37:41.116Z,3.43
2018-08-28T11:40:09.220Z,3.13
2018-08-28T11:42:37.352Z,3.30
2018-08-28T11:45:05.729Z,3.57
2018-08-28T11:47:33.848Z,3.80
2018-08-28T11:50:02.013Z,3.90
2018-08-28T11:52:30.193Z,3.43
2018-08-28T11:54:58.360Z,3.80
2018-08-28T11:57:26.477Z,3.67
2018-08-28T11:59:54.596Z,3.60
2018-08-28T12:02:22.718Z,4.03
2018-08-28T12:04:50.986Z,4.27
2018-08-28T12:07:19.093Z,3.50
2018-08-28T12:09:47.149Z,3.80
2018-08-28T12:12:15.272Z,4.00
2018-08-28T12:14:43.375Z,3.70
2018-08-28T12:17:11.502Z,4.17
2018-08-28T12:19:39.640Z,3.90
2018-08-28T12:22:07.776Z,3.40
2018-08-28T12:24:35.911Z,3.57
2018-08-28T12:27:04.039Z,3.50
2018-08-28T12:29:32.210Z,3.90
2018-08-28T12:32:00.309Z,4.20
2018-08-28T12:34:37.924Z,3.73
2018-08-28T12:37:06.101Z,3.80
2018-08-28T12:39:34.161Z,3.53
2018-08-28T12:42:02.295Z,4.27
2018-08-28T12:44:30.428Z,4.00
2018-08-28T12:46:58.545Z,3.57
2018-08-28T12:49:26.693Z,4.87
2018-08-28T12:51:54.800Z,4.30
2018-08-28T12:54:22.928Z,4.47
2018-08-28T12:56:51.045Z,4.60
2018-08-28T12:59:19.230Z,5.40
2018-08-28T13:01:47.356Z,6.30
2018-08-28T13:04:15.468Z,5.07
2018-08-28T13:06:43.589Z,4.43
2018-08-28T13:09:11.713Z,4.57
2018-08-28T13:11:39.830Z,5.37
2018-08-28T13:14:07.968Z,4.37
2018-08-28T13:16:36.120Z,3.80
2018-08-28T13:19:04.231Z,4.60
2018-08-28T13:21:32.536Z,4.90
2018-08-28T13:24:00.648Z,5.07
2018-08-28T13:26:28.755Z,4.83
2018-08-28T13:28:56.880Z,3.80
2018-08-28T13:31:25.078Z,4.23
2018-08-28T13:33:53.188Z,4.30
2018-08-28T13:36:21.305Z,4.20
2018-08-28T13:38:49.416Z,4.60
2018-08-28T13:41:17.530Z,4.97
2018-08-28T13:43:45.654Z,4.50
2018-08-28T13:46:13.791Z,4.30
2018-08-28T13:48:41.980Z,4.13
2018-08-28T13:51:10.100Z,4.70
2018-08-28T13:53:38.255Z,5.10
2018-08-28T13:56:06.335Z,4.60
2018-08-28T13:58:34.512Z,4.90
2018-08-28T14:01:02.633Z,5.20
2018-08-28T14:03:30.749Z,5.10
2018-08-28T14:05:58.883Z,5.17
2018-08-28T14:08:27.012Z,5.70
2018-08-28T14:10:55.137Z,5.67
2018-08-28T14:13:23.362Z,5.83
2018-08-28T14:15:51.425Z,5.80
2018-08-28T14:18:19.570Z,4.57
2018-08-28T14:20:47.685Z,4.70
2018-08-28T14:23:15.792Z,4.90
2018-08-28T14:25:43.912Z,4.90
2018-08-28T14:28:12.027Z,4.90
2018-08-28T14:30:40.289Z,5.53
2018-08-28T14:33:08.404Z,5.50
2018-08-28T14:35:36.619Z,5.90
2018-08-28T14:38:04.963Z,5.67
2018-08-28T14:40:33.097Z,5.47
2018-08-28T14:43:01.229Z,4.60
2018-08-28T14:45:29.342Z,4.80
2018-08-28T14:47:57.475Z,4.40
2018-08-28T14:50:25.635Z,5.20
2018-08-28T14:52:53.722Z,5.23
2018-08-28T14:55:21.865Z,5.40
2018-08-28T14:57:50.012Z,5.80
2018-08-28T15:00:18.152Z,4.83
2018-08-28T15:02:46.308Z,4.40
2018-08-28T15:05:14.435Z,4.20
2018-08-28T15:07:42.561Z,5.50
2018-08-28T15:10:10.692Z,5.40
2018-08-28T15:12:44.253Z,4.90
2018-08-28T15:15:12.375Z,5.50
2018-08-28T15:17:40.505Z,4.60
2018-08-28T15:20:08.643Z,5.20
2018-08-28T15:22:36.760Z,5.23
2018-08-28T15:25:05.130Z,4.77
2018-08-28T15:27:33.315Z,5.20
2018-08-28T15:30:01.398Z,4.47
2018-08-28T15:32:29.612Z,5.00
2018-08-28T15:34:57.976Z,4.53
2018-08-28T15:37:26.119Z,5.17
2018-08-28T15:39:54.275Z,4.27
2018-08-28T15:42:22.428Z,5.47
2018-08-28T15:44:50.593Z,4.50
2018-08-28T15:47:18.726Z,5.20
2018-08-28T15:49:46.874Z,4.80
2018-08-28T15:52:14.989Z,4.97
2018-08-28T15:54:43.138Z,4.70
2018-08-28T15:57:11.324Z,4.40
2018-08-28T15:59:39.543Z,5.30
2018-08-28T16:02:07.750Z,5.53
2018-08-28T16:04:35.881Z,4.90
2018-08-28T16:07:03.977Z,5.17
2018-08-28T16:09:32.096Z,4.47
2018-08-28T16:12:00.230Z,4.47
2018-08-28T16:14:28.361Z,4.90
2018-08-28T16:16:56.508Z,5.47
2018-08-28T16:19:24.633Z,5.37
2018-08-28T16:21:55.443Z,5.20
2018-08-28T16:24:23.591Z,4.40
2018-08-28T16:26:52.328Z,5.10
2018-08-28T16:29:20.432Z,4.90
2018-08-28T16:31:48.575Z,7.03
2018-08-28T16:34:16.680Z,5.60
2018-08-28T16:36:44.812Z,5.17
2018-08-28T16:39:12.943Z,5.70
2018-08-28T16:41:41.076Z,5.40
2018-08-28T16:44:09.353Z,5.10
2018-08-28T16:46:37.558Z,4.97
2018-08-28T16:49:05.663Z,4.87
2018-08-28T16:51:33.789Z,4.50
2018-08-28T16:54:01.931Z,6.93
2018-08-28T16:56:30.074Z,5.30
2018-08-28T16:58:58.180Z,6.00
2018-08-28T17:01:26.333Z,5.00
2018-08-28T17:03:54.432Z,6.57
2018-08-28T17:06:22.622Z,5.33
2018-08-28T17:08:50.740Z,6.00
2018-08-28T17:11:18.978Z,5.50
2018-08-28T17:13:47.092Z,5.50
2018-08-28T17:16:15.284Z,5.17
2018-08-28T17:18:43.417Z,4.60
2018-08-28T17:21:11.556Z,6.80
2018-08-28T17:23:39.667Z,5.43
2018-08-28T17:26:07.780Z,5.23
2018-08-28T17:28:35.892Z,5.80
2018-08-28T17:31:04.101Z,4.90
2018-08-28T17:33:32.146Z,5.13
2018-08-28T17:36:00.262Z,5.30
2018-08-28T17:38:28.374Z,5.83
2018-08-28T17:40:56.493Z,5.33
2018-08-28T17:43:24.608Z,6.40
2018-08-28T17:45:52.735Z,5.37
2018-08-28T17:48:20.898Z,6.10
2018-08-28T17:50:49.027Z,5.53
2018-08-28T17:53:17.135Z,6.17
2018-08-28T17:55:45.326Z,6.23
2018-08-28T17:58:13.444Z,5.73
2018-08-28T18:00:41.555Z,6.00
2018-08-28T18:03:09.677Z,5.87
2018-08-28T18:05:37.922Z,5.43
2018-08-28T18:08:06.037Z,6.70
2018-08-28T18:10:34.240Z,6.23
2018-08-28T18:13:03.144Z,6.73
2018-08-28T18:15:31.288Z,6.00
2018-08-28T18:17:59.452Z,5.57
2018-08-28T18:20:27.616Z,6.40
2018-08-28T18:22:55.735Z,5.50
2018-08-28T18:25:23.853Z,6.57
2018-08-28T18:27:52.048Z,5.40
2018-08-28T18:30:20.293Z,6.03
2018-08-28T18:32:48.529Z,5.27
2018-08-28T18:35:16.648Z,6.07
2018-08-28T18:37:44.996Z,5.80
2018-08-28T18:40:13.132Z,5.90
2018-08-28T18:42:42.796Z,5.70
2018-08-28T18:45:10.947Z,6.30
2018-08-28T18:47:39.087Z,5.80
2018-08-28T18:50:07.387Z,5.43
2018-08-28T18:52:35.520Z,6.00
2018-08-28T18:55:03.736Z,6.00
2018-08-28T18:57:31.845Z,5.80
2018-08-28T18:59:59.947Z,5.00
2018-08-28T19:02:28.088Z,6.00
2018-08-28T19:04:56.214Z,5.53
2018-08-28T19:07:24.334Z,6.07
2018-08-28T19:09:52.451Z,5.57
2018-08-28T19:12:20.583Z,5.83
2018-08-28T19:14:48.706Z,5.40
2018-08-28T19:17:16.906Z,6.13
2018-08-28T19:19:45.052Z,6.60
2018-08-28T19:22:13.476Z,7.27
2018-08-28T19:24:41.629Z,6.10
2018-08-28T19:27:10.664Z,5.17
2018-08-28T19:29:38.779Z,5.47
2018-08-28T19:32:06.954Z,6.07
2018-08-28T19:34:35.278Z,6.53
2018-08-28T19:37:03.427Z,5.77
2018-08-28T19:39:31.584Z,6.73
2018-08-28T19:41:59.698Z,5.90
2018-08-28T19:44:27.816Z,6.47
2018-08-28T19:46:55.959Z,5.90
2018-08-28T19:49:24.085Z,6.70
2018-08-28T19:51:52.304Z,6.00
2018-08-28T19:54:20.429Z,6.07
2018-08-28T19:56:48.573Z,6.47
2018-08-28T19:59:16.662Z,5.70
2018-08-28T20:01:44.773Z,5.80
2018-08-28T20:04:12.904Z,5.77
2018-08-28T20:06:41.021Z,6.27
2018-08-28T20:09:09.152Z,5.70
2018-08-28T20:11:37.257Z,5.83
2018-08-28T20:14:05.447Z,5.70
2018-08-28T20:16:33.568Z,6.37
2018-08-28T20:19:01.708Z,6.60
2018-08-28T20:21:29.839Z,5.90
2018-08-28T20:23:57.982Z,6.50
2018-08-28T20:26:26.112Z,7.10
2018-08-28T20:28:54.338Z,6.77
2018-08-28T20:31:22.500Z,6.23
2018-08-28T20:33:50.612Z,6.37
2018-08-28T20:36:18.735Z,6.20
2018-08-28T20:38:46.943Z,6.80
2018-08-28T20:41:15.093Z,7.00
2018-08-28T20:43:43.273Z,6.13
2018-08-28T20:46:11.430Z,7.40
2018-08-28T20:48:39.583Z,6.50
2018-08-28T20:51:07.746Z,6.83
2018-08-28T20:53:36.049Z,7.03
2018-08-28T20:56:04.104Z,6.70
2018-08-28T20:58:32.232Z,6.23
2018-08-28T21:01:00.360Z,7.20
2018-08-28T21:03:28.477Z,7.20
2018-08-28T21:05:56.604Z,7.20
2018-08-28T21:08:24.712Z,5.97
2018-08-28T21:10:52.847Z,7.33
2018-08-28T21:13:20.968Z,7.73
2018-08-28T21:15:49.109Z,6.50
2018-08-28T21:18:17.268Z,7.77
2018-08-28T21:20:45.367Z,6.63
2018-08-28T21:23:13.483Z,7.33
2018-08-28T21:25:41.580Z,6.80
2018-08-28T21:28:09.760Z,6.80
2018-08-28T21:30:37.868Z,8.03
2018-08-28T21:33:06.048Z,7.03
2018-08-28T21:35:34.237Z,6.17
2018-08-28T21:38:02.328Z,7.43
2018-08-28T21:40:30.450Z,7.43
2018-08-28T21:42:58.580Z,6.43
2018-08-28T21:45:26.687Z,6.47
2018-08-28T21:47:54.813Z,6.37
2018-08-28T21:50:22.940Z,6.50
2018-08-28T21:52:51.092Z,7.30
2018-08-28T21:55:19.199Z,6.40
2018-08-28T21:57:47.332Z,6.67
2018-08-28T22:00:15.446Z,6.00
2018-08-28T22:02:43.573Z,6.03
2018-08-28T22:05:11.709Z,6.90
2018-08-28T22:07:40.495Z,7.60
2018-08-28T22:10:08.976Z,6.60
2018-08-28T22:12:37.108Z,7.73
2018-08-28T22:15:05.492Z,6.97
2018-08-28T22:17:33.638Z,6.20
2018-08-28T22:20:01.851Z,7.67
2018-08-28T22:22:29.971Z,7.00
2018-08-28T22:24:58.080Z,7.33
2018-08-28T22:27:26.251Z,7.33
2018-08-28T22:29:54.324Z,7.63
2018-08-28T22:32:22.443Z,6.73
2018-08-28T22:34:50.550Z,7.13
2018-08-28T22:37:18.681Z,7.50
2018-08-28T22:39:46.802Z,7.03
2018-08-28T22:42:14.909Z,6.93
2018-08-28T22:44:43.030Z,7.20
2018-08-28T22:47:11.127Z,7.37
2018-08-28T22:49:39.260Z,7.17
2018-08-28T22:52:07.372Z,7.23
2018-08-28T22:54:35.496Z,7.00
2018-08-28T22:57:03.617Z,7.43
2018-08-28T22:59:31.765Z,7.27
2018-08-28T23:01:59.878Z,6.40
2018-08-28T23:04:28.010Z,7.17
2018-08-28T23:06:56.129Z,7.53
2018-08-28T23:09:24.261Z,8.07
2018-08-28T23:11:52.397Z,7.57
2018-08-28T23:14:27.339Z,7.40
2018-08-28T23:16:55.491Z,7.40
2018-08-28T23:19:24.128Z,7.17
2018-08-28T23:21:52.232Z,7.33
2018-08-28T23:24:20.352Z,7.60
2018-08-28T23:26:48.451Z,6.80
2018-08-28T23:29:16.584Z,7.60
2018-08-28T23:31:44.709Z,6.43
2018-08-28T23:34:12.830Z,7.10
2018-08-28T23:36:40.956Z,6.73
2018-08-28T23:39:09.063Z,6.73
2018-08-28T23:41:37.166Z,7.67
2018-08-28T23:44:05.688Z,7.57
2018-08-28T23:46:33.912Z,7.50
2018-08-28T23:49:02.160Z,7.20
2018-08-28T23:51:30.312Z,7.27
2018-08-28T23:53:58.563Z,6.80
2018-08-28T23:56:26.693Z,6.60
2018-08-28T23:58:54.841Z,6.27
